Latest Weather Observations for Argyle

IDD60801

Issued at 10:01 am CST Tuesday 20 October 2020 (issued every 10 minutes, with the page automatically refreshed every 10 minutes)

About weather observations | Map of weather stations | Latest weather observations for NT | Other Formats
Station Details ID: 002064 Name: ARGYLE AERODROME Lat: -16.64 Lon: 128.45 Height: 164.0 m
Data from the previous 72 hours. | See also: Recent months at Argyle
Date/Time
CST
Temp
°C
App
Temp
°C
Dew
Point
°C
Rel
Hum
%
Delta-T
°C
Wind Press
QNH
hPa
Press
MSL
hPa
Rain since
9am
mm
Dir  Spd
km/h
Gust
km/h
Spd
kts
Gust
kts
20/10:00am 34.3 35.6 17.1 36 11.1 S 6 13 3 7 1011.6 1010.4 0.0
20/09:30am 34.4 35.5 18.0 37 10.7 WNW 9 17 5 9 1011.7 1010.5 0.0
20/09:00am 32.5 34.0 19.0 44 8.9 NNW 9 15 5 8 1011.6 1010.4 0.0
20/08:30am 31.2 32.8 19.9 51 7.5 NW 11 15 6 8 1011.7 1010.5 0.0
20/08:00am 30.9 32.8 20.5 54 6.9 NNW 11 15 6 8 1011.4 1010.2 0.0
20/07:30am 30.0 32.7 20.3 56 6.4 N 6 9 3 5 1011.0 1009.8 0.0
20/07:00am 29.0 32.4 19.3 55 6.3 CALM 0 0 0 0 1010.6 1009.3 0.0
20/06:30am 28.9 32.4 19.5 57 6.2 CALM 0 0 0 0 1010.4 1009.1 0.0
20/06:00am 29.3 32.8 19.6 56 6.4 CALM 0 0 0 0 1010.1 1008.8 0.0
20/05:30am 29.4 33.0 19.7 56 6.4 CALM 0 0 0 0 1009.7 1008.4 0.0
20/05:00am 29.4 31.8 19.7 56 6.4 N 6 7 3 4 1009.6 1008.3 0.0
20/04:30am 29.6 33.0 19.3 54 6.8 CALM 0 0 0 0 1009.3 1008.0 0.0
20/04:00am 29.9 32.0 19.3 53 6.9 N 7 11 4 6 1009.3 1008.0 0.0
20/03:30am 30.2 31.7 18.9 50 7.4 N 9 11 5 6 1009.4 1008.1 0.0
20/03:00am 30.4 31.5 18.8 50 7.6 N 11 15 6 8 1009.6 1008.3 0.0
20/02:30am 30.4 31.9 18.8 50 7.6 N 9 15 5 8 1009.7 1008.4 0.0
20/02:00am 30.1 30.8 18.8 50 7.4 N 13 17 7 9 1009.9 1008.6 0.0
20/01:30am 30.7 30.8 17.4 45 8.5 N 13 15 7 8 1010.0 1008.7 0.0
20/01:00am 30.9 31.2 17.9 45 8.4 N 13 17 7 9 1009.9 1008.6 0.0
20/12:30am 31.2 32.5 18.5 46 8.3 NNW 9 15 5 8 1010.0 1008.7 0.0
20/12:00am 31.3 32.1 19.9 50 7.6 N 15 20 8 11 1010.2 1008.9 0.0
 
Date/Time
CST
Temp
°C
App
Temp
°C
Dew
Point
°C
Rel
Hum
%
Delta-T
°C
Wind Press
QNH
hPa
Press
MSL
hPa
Rain since
9am
mm
Dir  Spd
km/h
Gust
km/h
Spd
kts
Gust
kts
19/11:30pm 31.6 32.3 20.5 51 7.4 N 17 20 9 11 1010.4 1009.1 0.0
19/11:00pm 32.2 33.5 20.1 48 8.1 N 13 17 7 9 1010.5 1009.2 0.0
19/10:30pm 32.7 32.6 19.9 46 8.5 N 20 26 11 14 1010.3 1009.0 0.0
19/10:00pm 33.4 33.1 19.5 44 9.2 N 20 28 11 15 1010.0 1008.7 0.0
19/09:30pm 33.9 34.4 19.2 42 9.7 N 15 26 8 14 1009.7 1008.4 0.0
19/09:00pm 34.4 35.5 18.8 39 10.3 NNE 11 15 6 8 1009.4 1008.1 0.0
19/08:30pm 33.9 35.7 15.4 33 11.6 CALM 0 0 0 0 1008.9 1007.6 0.0
19/08:00pm 34.3 34.9 15.7 32 11.7 N 7 11 4 6 1008.2 1006.9 0.0
19/07:30pm 34.8 34.6 15.7 32 12.1 N 11 17 6 9 1007.6 1006.3 0.0
19/07:00pm 35.3 33.3 15.6 31 12.5 N 20 30 11 16 1007.1 1005.8 0.0
19/06:30pm 36.4 35.0 15.5 29 13.3 NNE 17 26 9 14 1006.5 1005.2 0.0
19/06:00pm 37.4 35.9 15.2 26 14.1 NNE 17 22 9 12 1006.2 1004.9 0.0
19/05:30pm 37.8 36.0 14.4 25 14.7 NE 17 26 9 14 1005.9 1004.6 0.0
19/05:00pm 39.2 38.3 10.5 18 17.1 SE 6 9 3 5 1005.8 1004.5 0.0
19/04:30pm 39.7 37.9 10.9 18 17.4 E 11 20 6 11 1005.8 1004.5 0.0
19/04:00pm 39.5 38.7 11.6 19 16.9 SSE 7 13 4 7 1005.9 1004.6 0.0
19/03:30pm 39.6 38.9 13.2 21 16.4 SSW 9 17 5 9 1006.3 1005.0 0.0
19/03:00pm 38.6 37.1 13.1 22 15.7 SSE 13 20 7 11 1006.6 1005.3 0.0
19/02:30pm 39.2 38.1 14.3 23 15.7 SE 13 20 7 11 1007.1 1005.8 0.0
19/02:00pm 38.9 38.6 13.3 22 15.9 S 7 15 4 8 1007.5 1006.2 0.0
19/01:30pm 38.8 37.8 14.6 24 15.3 NW 13 19 7 10 1008.1 1006.8 0.0
19/01:00pm 37.7 37.0 14.3 25 14.6 WSW 11 20 6 11 1008.6 1007.3 0.0
19/12:30pm 37.5 37.3 14.7 25 14.4 SSE 9 17 5 9 1009.4 1008.1 0.0
19/12:00pm 36.7 36.2 15.8 29 13.3 N 13 22 7 12 1009.9 1008.6 0.0
19/11:30am 35.7 36.3 15.9 30 12.6 SW 7 11 4 6 1010.5 1009.2 0.0
19/11:00am 36.3 37.2 16.5 31 12.7 NNW 7 15 4 8 1011.0 1009.8 0.0
19/10:30am 34.9 35.5 16.7 34 11.7 WNW 9 17 5 9 1011.4 1010.2 0.0
19/10:00am 34.3 34.6 17.1 36 11.1 SSW 11 20 6 11 1011.6 1010.4 0.0
19/09:30am 33.5 34.3 17.2 37 10.5 WSW 9 15 5 8 1011.8 1010.6 0.0
19/09:00am 33.0 34.1 18.0 41 9.7 SW 9 19 5 10 1011.9 1010.7 0.0
19/08:30am 32.3 32.7 18.1 42 9.2 W 13 19 7 10 1011.9 1010.7 0.0
19/08:00am 31.6 31.5 17.9 44 8.8 W 15 20 8 11 1011.7 1010.5 0.0
19/07:30am 30.6 30.9 18.0 47 8.1 WNW 13 17 7 9 1011.2 1010.0 0.0
19/07:00am 29.5 30.7 18.3 51 7.2 W 9 13 5 7 1010.8 1009.6 0.0
19/06:30am 29.2 31.0 18.3 51 7.0 WNW 6 11 3 6 1010.4 1009.1 0.0
19/06:00am 29.6 30.5 18.4 51 7.2 NW 11 15 6 8 1010.1 1008.8 0.0
19/05:30am 29.8 30.8 18.6 51 7.3 WNW 11 13 6 7 1009.9 1008.6 0.0
19/05:00am 30.1 31.2 18.8 50 7.4 NW 11 17 6 9 1009.7 1008.4 0.0
19/04:30am 30.2 32.0 19.6 53 7.0 NNW 9 15 5 8 1009.7 1008.4 0.0
19/04:00am 29.8 32.4 20.4 57 6.3 NW 7 9 4 5 1009.7 1008.4 0.0
19/03:30am 30.0 32.2 20.5 56 6.3 NNW 9 11 5 6 1009.8 1008.5 0.0
19/03:00am 30.2 32.4 20.4 55 6.5 NW 9 13 5 7 1010.2 1008.9 0.0
19/02:30am 30.3 31.5 20.0 54 6.8 NW 13 17 7 9 1010.4 1009.1 0.0
19/02:00am 30.3 31.6 19.3 51 7.2 NW 11 19 6 10 1010.7 1009.4 0.0
19/01:30am 30.6 31.0 19.0 50 7.6 NNW 15 20 8 11 1010.7 1009.4 0.0
19/01:00am 30.7 31.8 18.8 49 7.8 NNW 11 15 6 8 1010.8 1009.6 0.0
19/12:30am 30.8 30.5 19.2 50 7.6 NNW 19 26 10 14 1010.9 1009.7 0.0
19/12:00am 30.9 30.1 19.3 50 7.6 NNW 22 32 12 17 1011.0 1009.8 0.0
 
Date/Time
CST
Temp
°C
App
Temp
°C
Dew
Point
°C
Rel
Hum
%
Delta-T
°C
Wind Press
QNH
hPa
Press
MSL
hPa
Rain since
9am
mm
Dir  Spd
km/h
Gust
km/h
Spd
kts
Gust
kts
18/11:30pm 31.5 31.9 19.8 49 7.8 N 17 24 9 13 1011.0 1009.8 0.0
18/11:00pm 31.4 32.1 20.4 52 7.3 NNE 17 24 9 13 1010.8 1009.6 0.0
18/10:30pm 31.5 31.8 20.4 51 7.4 NE 19 26 10 14 1010.5 1009.2 0.0
18/10:00pm 31.8 31.4 20.1 50 7.8 NE 22 35 12 19 1010.2 1008.9 0.0
18/09:30pm 32.9 31.5 18.7 43 9.3 NNE 24 43 13 23 1010.5 1009.2 0.0
18/09:00pm 33.2 33.2 15.2 33 11.2 ENE 9 13 5 7 1009.6 1008.3 0.0
18/08:30pm 33.8 33.1 15.3 33 11.6 E 13 20 7 11 1008.9 1007.6 0.0
18/08:00pm 35.3 35.4 14.0 28 13.2 WNW 6 7 3 4 1008.3 1007.0 0.0
18/07:30pm 35.6 34.7 13.7 27 13.5 NW 11 15 6 8 1008.0 1006.7 0.0
18/07:00pm 36.4 35.1 13.8 26 14.0 WNW 13 17 7 9 1007.8 1006.5 0.0
18/06:30pm 35.5 35.3 14.7 28 13.0 W 9 15 5 8 1007.8 1006.5 0.0
18/06:00pm 35.8 35.1 14.4 27 13.3 WSW 11 15 6 8 1007.4 1006.1 0.0
18/05:30pm 35.7 34.1 14.9 29 13.1 WSW 17 22 9 12 1007.2 1005.9 0.0
18/05:00pm 34.7 32.9 16.1 33 11.8 SW 20 28 11 15 1007.2 1005.9 0.0
18/04:30pm 35.3 32.4 16.1 32 12.3 WSW 26 35 14 19 1007.2 1005.9 0.0
18/04:10pm 35.5 31.7 15.8 31 12.5 SW 30 41 16 22 1007.2 - 0.0
18/04:09pm 36.1 34.2 15.8 30 12.9 SW 20 39 11 21 1007.2 1005.9 0.0
18/04:00pm 37.3 36.9 15.2 27 14.0 SSE 11 20 6 11 1007.2 1005.9 0.0
18/03:30pm 38.5 36.4 12.3 21 16.0 NE 15 22 8 12 1007.3 1006.0 0.0
18/03:00pm 38.9 37.6 12.6 21 16.1 N 11 22 6 12 1007.5 1006.2 0.0
18/02:30pm 38.6 37.1 13.1 22 15.8 NW 13 22 7 12 1007.8 1006.5 0.0
18/02:00pm 37.0 35.9 13.1 24 14.7 WNW 11 22 6 12 1008.4 1007.1 0.0
18/01:30pm 38.3 37.3 13.5 23 15.4 W 11 20 6 11 1008.8 1007.5 0.0
18/01:00pm 38.1 38.0 14.0 24 15.0 W 7 20 4 11 1009.5 1008.2 0.0
18/12:30pm 36.0 34.6 13.5 26 13.9 NNW 13 20 7 11 1010.4 1009.1 0.0
18/12:00pm 35.6 34.9 14.3 28 13.2 NW 11 17 6 9 1010.9 1009.7 0.0
18/11:30am 35.4 34.3 15.2 30 12.7 NNW 15 24 8 13 1011.4 1010.2 0.0
18/11:00am 33.2 31.7 15.2 33 11.2 NNW 17 24 9 13 1011.9 1010.7 0.0
18/10:30am 32.5 31.3 15.1 35 10.8 NNW 15 24 8 13 1012.3 1011.0 0.0
18/10:00am 31.9 30.4 16.2 38 9.9 NW 19 26 10 14 1012.2 1010.9 0.0
18/09:30am 31.9 31.4 17.0 41 9.5 WNW 15 20 8 11 1012.2 1010.9 0.0
18/09:00am 30.5 29.1 17.9 47 8.1 WNW 22 33 12 18 1011.5 1010.3 0.0
18/08:30am 29.6 30.4 19.0 53 6.9 WNW 13 22 7 12 1012.5 1011.2 0.0
18/08:00am 30.0 31.8 18.8 51 7.3 SW 7 11 4 6 1012.6 1011.3 0.0
18/07:30am 29.2 31.8 19.2 54 6.5 SW 4 7 2 4 1012.1 1010.8 0.0
18/07:00am 28.7 32.2 19.6 58 6.0 CALM 0 0 0 0 1011.8 1010.6 0.0
18/06:30am 28.4 31.3 19.1 57 6.1 ENE 2 6 1 3 1011.1 1009.9 0.0
18/06:00am 29.0 31.9 19.0 54 6.5 NW 2 6 1 3 1010.8 1009.6 0.0
18/05:30am 29.2 30.5 19.2 54 6.5 NNW 11 15 6 8 1010.2 1008.9 0.0
18/05:00am 29.0 30.3 19.3 55 6.3 NNW 11 15 6 8 1009.6 1008.3 0.0
18/04:30am 28.9 30.3 19.5 57 6.2 NW 11 15 6 8 1009.5 1008.2 0.0
18/04:00am 28.6 30.9 19.8 59 5.8 N 7 11 4 6 1009.4 1008.1 0.0
18/03:30am 28.6 31.0 20.1 60 5.6 NW 7 9 4 5 1009.3 1008.0 0.0
18/03:00am 28.9 30.4 19.8 58 6.0 NNW 11 15 6 8 1009.4 1008.1 0.0
18/02:30am 29.0 30.2 19.9 58 6.0 N 13 17 7 9 1009.4 1008.1 0.0
18/02:00am 29.2 30.4 19.8 57 6.2 N 13 19 7 10 1009.7 1008.4 0.0
18/01:30am 29.7 29.5 19.4 54 6.8 N 19 26 10 14 1009.9 1008.6 0.0
18/01:00am 30.0 29.5 19.1 52 7.1 N 20 30 11 16 1009.8 1008.5 0.0
18/12:30am 30.1 29.6 19.2 52 7.1 N 20 30 11 16 1009.9 1008.6 0.0
18/12:00am 30.3 30.1 19.3 51 7.2 N 19 28 10 15 1010.0 1008.7 0.0
 
Date/Time
CST
Temp
°C
App
Temp
°C
Dew
Point
°C
Rel
Hum
%
Delta-T
°C
Wind Press
QNH
hPa
Press
MSL
hPa
Rain since
9am
mm
Dir  Spd
km/h
Gust
km/h
Spd
kts
Gust
kts
17/11:30pm 30.8 29.3 18.5 47 8.0 NNW 24 35 13 19 1009.7 1008.4 0.0
17/11:00pm 31.1 29.9 18.5 47 8.2 N 22 32 12 17 1009.5 1008.2 0.0
17/10:30pm 31.8 29.4 17.3 42 9.3 N 26 35 14 19 1009.3 1008.0 0.0
17/10:00pm 32.5 30.3 15.9 36 10.4 N 22 32 12 17 1008.9 1007.6 0.0
17/09:30pm 33.1 31.0 14.7 33 11.4 N 19 28 10 15 1008.6 1007.3 0.0
17/09:00pm 34.0 31.1 12.9 28 12.8 N 20 32 11 17 1008.1 1006.8 0.0
17/08:30pm 34.6 29.8 12.9 27 13.2 N 30 39 16 21 1007.9 1006.6 0.0
17/08:21pm 35.0 31.8 13.2 27 13.3 N 22 41 12 22 1007.7 1006.4 0.0
17/08:00pm 36.1 34.6 13.0 25 14.1 N 13 20 7 11 1007.4 1006.1 0.0
17/07:30pm 36.5 34.5 12.7 24 14.5 N 15 19 8 10 1007.0 1005.7 0.0
17/07:00pm 36.9 35.2 12.4 23 14.9 NNE 13 17 7 9 1006.7 1005.4 0.0
17/06:30pm 37.7 36.0 12.3 22 15.5 NNW 13 20 7 11 1006.3 1005.0 0.0
17/06:00pm 37.6 36.2 12.3 22 15.4 N 11 20 6 11 1006.1 1004.8 0.0
17/05:30pm 38.1 36.5 12.7 22 15.6 N 13 20 7 11 1005.8 1004.5 0.0
17/05:00pm 37.9 36.4 13.2 23 15.2 N 13 24 7 13 1005.7 1004.4 0.0
17/04:30pm 38.0 37.7 13.3 23 15.3 N 7 15 4 8 1005.8 1004.5 0.0
17/04:00pm 39.1 38.4 14.2 23 15.6 NNE 11 26 6 14 1006.1 1004.8 0.0
17/03:30pm 38.7 37.1 13.8 22 15.6 NNW 15 26 8 14 1006.4 1005.1 0.0
17/03:00pm 38.3 36.0 14.2 24 15.1 NNE 19 32 10 17 1006.6 1005.3 0.0
17/02:30pm 37.9 35.9 13.8 23 15.0 NNW 17 30 9 16 1007.2 1005.9 0.0
17/02:00pm 38.1 37.6 15.8 26 14.3 NNW 13 26 7 14 1007.6 1006.3 0.0
17/01:30pm 37.2 36.4 16.2 29 13.5 NNW 15 28 8 15 1008.1 1006.8 0.0
17/01:00pm 37.1 36.7 17.1 30 13.0 N 15 30 8 16 1008.7 1007.4 0.0
17/12:30pm 35.2 34.9 17.4 34 11.6 NNW 15 22 8 12 1009.4 1008.1 0.0
17/12:00pm 34.7 35.4 17.9 37 10.9 NNW 11 24 6 13 1010.1 1008.8 0.0

Other formats

Comma delimited format used in spreadsheet applications
http://www.bom.gov.au/fwo/IDD60801/IDD60801.94217.axf

JavaScript Object Notation format (JSON) in row-major order
http://www.bom.gov.au/fwo/IDD60801/IDD60801.94217.json

Data quality

Most of these data are generated automatically and are frequently updated. Quality checks on data are not normally performed. It is possible for incorrect values to appear. Refer to information at About Latest Weather Observations and please check the disclaimer before using these data.